Time;durP1;ratioP1;P1;durP2;ratioP2;P2;SDS_P1;SDS_P2;PMS_P1;PMS_P2;Temp;Humidity;BMP_temperature;BMP_pressure;BME280_temperature;BME280_humidity;BME280_pressure;Samples;Min_cycle;Max_cycle;Signal;HPM_P1;HPM_P2
2022/11/25 00:00:09;;;;;;;37.53;15.55;;;;;;;4.88;59.45;99762.66;5267715;27;20686;-89
2022/11/25 00:02:34;;;;;;;44.33;16.70;;;;;;;4.81;59.45;99766.16;5261097;27;20060;-89
2022/11/25 00:05:00;;;;;;;39.67;14.38;;;;;;;4.88;59.46;99770.38;5277373;27;28200;-88
2022/11/25 00:07:25;;;;;;;36.42;15.05;;;;;;;4.83;59.44;99766.16;5277690;27;20154;-88
2022/11/25 00:09:52;;;;;;;36.20;14.87;;;;;;;4.76;59.45;99761.91;5278212;27;20436;-88
2022/11/25 00:12:17;;;;;;;35.25;15.13;;;;;;;4.72;59.44;99761.06;5278024;27;20353;-89
2022/11/25 00:14:42;;;;;;;39.20;15.90;;;;;;;4.79;59.45;99764.47;5259074;27;23873;-88
2022/11/25 00:17:08;;;;;;;39.03;15.25;;;;;;;4.77;59.44;99750.72;5276348;27;35782;-88
2022/11/25 00:19:33;;;;;;;34.30;13.90;;;;;;;4.91;59.45;99746.28;5277068;27;20094;-89
2022/11/25 00:21:58;;;;;;;31.65;13.85;;;;;;;4.92;59.45;99760.88;5258835;27;25563;-89
2022/11/25 00:24:24;;;;;;;36.05;13.85;;;;;;;5.05;59.46;99761.66;5352413;26;34041;-88
2022/11/25 00:26:49;;;;;;;36.20;15.18;;;;;;;4.91;59.45;99764.34;5277793;27;20108;-91
2022/11/25 00:29:16;;;;;;;37.45;14.73;;;;;;;5.09;59.46;99764.19;5278088;27;20140;-89
2022/11/25 00:31:41;;;;;;;30.88;13.50;;;;;;;5.16;59.46;99767.53;5277713;27;20097;-90
2022/11/25 00:34:10;;;;;;;35.63;14.55;;;;;;;4.96;59.45;99774.59;5259863;27;20065;-90
2022/11/25 00:36:36;;;;;;;35.67;14.50;;;;;;;4.77;59.44;99781.69;5260069;27;20801;-89
2022/11/25 00:39:06;;;;;;;24.60;13.02;;;;;;;4.94;59.46;99787.53;5259872;27;20100;-89
2022/11/25 00:44:35;;;;;;;32.22;12.98;;;;;;;5.01;59.46;99785.78;5280710;26;20096;-91
2022/11/25 00:47:04;;;;;;;36.70;15.30;;;;;;;5.05;59.46;99783.12;5261767;27;20061;-88
2022/11/25 00:49:30;;;;;;;36.42;14.48;;;;;;;5.03;59.46;99786.59;5278099;27;20045;-89
2022/11/25 00:51:55;;;;;;;30.83;14.63;;;;;;;4.94;59.46;99790.09;5277798;27;20084;-88
2022/11/25 00:54:21;;;;;;;40.63;15.65;;;;;;;5.11;59.46;99783.06;5296872;27;23344;-90
2022/11/25 00:56:46;;;;;;;31.30;12.48;;;;;;;5.10;59.46;99790.84;5277563;27;20224;-91
2022/11/25 00:59:11;;;;;;;34.88;14.75;;;;;;;5.19;59.47;99783.84;5258610;27;30030;-89
2022/11/25 01:01:37;;;;;;;32.53;14.32;;;;;;;5.20;59.47;99784.69;5277327;27;20068;-90
2022/11/25 01:04:03;;;;;;;32.85;14.75;;;;;;;5.13;59.47;99798.53;5277283;27;20303;-89
2022/11/25 01:06:28;;;;;;;36.22;15.05;;;;;;;5.35;59.47;99796.63;5259530;27;20060;-87
2022/11/25 01:08:53;;;;;;;33.13;14.93;;;;;;;5.10;59.47;99804.59;5259792;27;20076;-89
2022/11/25 01:11:20;;;;;;;34.08;14.93;;;;;;;5.25;59.47;99806.19;5259493;27;20113;-90
2022/11/25 01:13:45;;;;;;;37.28;16.35;;;;;;;5.31;59.48;99806.12;5259947;27;20097;-88
2022/11/25 01:16:18;;;;;;;37.45;14.85;;;;;;;5.38;59.47;99812.06;5259215;27;20075;-90
2022/11/25 01:18:43;;;;;;;35.17;14.85;;;;;;;5.37;59.48;99813.78;5277947;27;20059;-90
2022/11/25 01:21:19;;;;;;;33.17;15.10;;;;;;;5.48;59.48;99811.13;5277469;27;20057;-90
2022/11/25 01:23:47;;;;;;;27.95;13.77;;;;;;;5.30;59.47;99808.72;5286232;27;20025;-89
2022/11/25 01:26:14;;;;;;;31.55;13.98;;;;;;;5.41;59.48;99809.44;5269039;26;20064;-90
2022/11/25 01:28:39;;;;;;;30.62;14.68;;;;;;;5.41;59.48;99807.72;5260653;27;20162;-90
2022/11/25 01:31:09;;;;;;;33.85;16.08;;;;;;;5.51;59.48;99809.34;5277289;27;20097;-89
2022/11/25 01:33:35;;;;;;;33.28;15.60;;;;;;;5.33;59.48;99812.13;5277763;27;20061;-90
2022/11/25 01:36:04;;;;;;;33.88;15.18;;;;;;;5.53;59.49;99809.34;5259413;27;20105;-89
2022/11/25 01:38:30;;;;;;;33.42;14.25;;;;;;;5.34;59.47;99815.56;5297119;27;20060;-90
2022/11/25 01:40:55;;;;;;;35.20;15.63;;;;;;;5.44;59.48;99812.88;5277498;27;20060;-90
2022/11/25 01:43:21;;;;;;;31.85;15.27;;;;;;;5.44;59.48;99812.00;5276679;26;24915;-90
2022/11/25 01:45:47;;;;;;;32.50;14.45;;;;;;;5.23;59.46;99815.66;5259170;27;20086;-91
2022/11/25 01:48:21;;;;;;;30.30;14.27;;;;;;;5.32;59.48;99812.13;5277398;27;20061;-91
2022/11/25 01:50:47;;;;;;;35.35;15.27;;;;;;;5.36;59.47;99817.25;5277670;27;20065;-90
2022/11/25 01:53:13;;;;;;;27.83;14.18;;;;;;;5.26;59.47;99810.47;5277467;27;20057;-89
2022/11/25 01:55:39;;;;;;;38.85;15.73;;;;;;;5.28;59.47;99811.31;5277631;27;20405;-89
2022/11/25 01:58:10;;;;;;;30.42;14.40;;;;;;;5.36;59.47;99811.22;5259178;27;20136;-89
2022/11/25 02:00:36;;;;;;;36.40;16.62;;;;;;;5.19;59.47;99811.37;5277615;27;20155;-90
2022/11/25 02:03:02;;;;;;;35.45;14.30;;;;;;;5.23;59.46;99806.19;5259684;26;20061;-90
2022/11/25 02:05:41;;;;;;;40.63;16.25;;;;;;;5.27;59.47;99803.59;5259409;27;20330;-90
2022/11/25 02:08:06;;;;;;;37.25;15.40;;;;;;;5.07;59.46;99812.34;5278220;27;20057;-90
2022/11/25 02:10:31;;;;;;;35.00;15.32;;;;;;;5.22;59.47;99794.16;5258600;27;27687;-90
2022/11/25 02:12:57;;;;;;;35.78;15.85;;;;;;;5.19;59.47;99807.06;5277765;27;20076;-90
2022/11/25 02:15:22;;;;;;;33.53;15.55;;;;;;;5.29;59.47;99810.44;5277767;27;20062;-89
2022/11/25 02:17:48;;;;;;;36.47;15.30;;;;;;;5.42;59.48;99816.31;5259532;27;20089;-89
2022/11/25 02:20:17;;;;;;;32.67;14.90;;;;;;;5.28;59.47;99815.63;5259639;27;20048;-89
2022/11/25 02:23:04;;;;;;;31.17;14.35;;;;;;;5.23;59.47;99821.69;5259915;27;20456;-89
2022/11/25 02:25:34;;;;;;;35.40;14.87;;;;;;;5.17;59.47;99823.44;5277688;26;20079;-88
2022/11/25 02:28:08;;;;;;;31.48;13.93;;;;;;;5.21;59.46;99822.56;5259288;27;20081;-89
2022/11/25 02:30:33;;;;;;;33.10;17.05;;;;;;;4.99;59.46;99828.78;5296150;27;20053;-88
2022/11/25 02:32:59;;;;;;;38.08;15.55;;;;;;;5.23;59.46;99829.44;5277552;27;20079;-88
2022/11/25 02:35:26;;;;;;;34.80;15.02;;;;;;;5.09;59.47;99827.81;5259994;27;20095;-90
2022/11/25 02:37:53;;;;;;;33.65;14.87;;;;;;;5.24;59.48;99818.22;5260046;27;20068;-90
2022/11/25 02:40:19;;;;;;;33.63;14.95;;;;;;;5.25;59.48;99816.50;5259849;27;20045;-90
2022/11/25 02:42:44;;;;;;;32.00;14.57;;;;;;;5.06;59.46;99822.69;5259241;26;21895;-91
2022/11/25 02:45:10;;;;;;;35.45;15.50;;;;;;;5.12;59.46;99818.31;5277898;27;20344;-91
2022/11/25 02:47:36;;;;;;;36.33;15.73;;;;;;;5.16;59.46;99816.56;5260093;26;20050;-90
2022/11/25 02:50:02;;;;;;;36.50;15.07;;;;;;;5.23;59.46;99815.66;5291678;26;20101;-91
2022/11/25 02:52:27;;;;;;;37.40;16.02;;;;;;;5.14;59.46;99823.47;5264494;27;20068;-92
2022/11/25 02:54:52;;;;;;;35.75;16.42;;;;;;;5.06;59.46;99825.28;5259915;27;20053;-90
2022/11/25 02:57:18;;;;;;;35.58;15.57;;;;;;;5.12;59.47;99826.06;5259403;27;22763;-91
2022/11/25 02:59:43;;;;;;;35.60;16.27;;;;;;;4.96;59.45;99818.47;5259292;27;21548;-92
2022/11/25 03:02:09;;;;;;;36.60;15.30;;;;;;;5.03;59.45;99821.00;5259990;27;20077;-91
2022/11/25 03:04:34;;;;;;;33.63;15.95;;;;;;;4.90;59.45;99827.13;5260338;27;20064;-91
2022/11/25 03:06:59;;;;;;;37.85;16.05;;;;;;;4.96;59.45;99816.75;5278233;27;20080;-92
2022/11/25 03:09:25;;;;;;;36.10;16.25;;;;;;;5.05;59.46;99821.84;5259707;27;30482;-92
2022/11/25 03:15:20;;;;;;;;;;;;;;;;;;;;;
2022/11/25 03:17:46;;;;;;;38.55;16.77;;;;;;;4.89;59.45;99828.84;5280020;27;36993;-91
2022/11/25 03:20:12;;;;;;;39.42;16.85;;;;;;;4.91;59.45;99829.69;5261255;27;20045;-92
2022/11/25 03:22:38;;;;;;;41.33;16.08;;;;;;;4.96;59.45;99828.78;5261447;27;20061;-91
2022/11/25 03:25:04;;;;;;;37.95;16.08;;;;;;;4.90;59.45;99835.72;5279621;26;20124;-91
2022/11/25 03:27:29;;;;;;;41.15;16.90;;;;;;;4.93;59.45;99829.66;5261468;26;20425;-91
2022/11/25 03:29:54;;;;;;;36.53;16.45;;;;;;;4.90;59.45;99827.13;5261545;27;20426;-92
2022/11/25 03:32:20;;;;;;;36.70;15.32;;;;;;;4.88;59.46;99834.00;5261073;27;20077;-91
2022/11/25 03:34:45;;;;;;;36.80;15.85;;;;;;;4.94;59.46;99839.13;5261620;26;20585;-92
2022/11/25 03:37:11;;;;;;;37.25;17.35;;;;;;;4.78;59.44;99847.84;5260532;27;30459;-91
2022/11/25 03:39:36;;;;;;;37.35;16.05;;;;;;;4.91;59.45;99849.47;5260192;27;27724;-92
2022/11/25 03:42:01;;;;;;;37.08;15.40;;;;;;;5.12;59.47;99856.16;5260647;27;20092;-92
2022/11/25 03:44:27;;;;;;;36.85;15.98;;;;;;;5.18;59.47;99856.97;5261061;26;20413;-93
2022/11/25 03:46:52;;;;;;;38.67;16.35;;;;;;;5.15;59.46;99857.00;5261543;27;20484;-92
2022/11/25 03:49:18;;;;;;;39.92;16.73;;;;;;;5.23;59.46;99855.22;5261400;26;20073;-93
2022/11/25 03:51:43;;;;;;;38.10;17.42;;;;;;;5.28;59.47;99856.91;5279560;27;20108;-92
2022/11/25 03:54:09;;;;;;;40.12;17.02;;;;;;;5.39;59.48;99855.06;5261361;27;20071;-93
2022/11/25 03:56:34;;;;;;;40.40;16.77;;;;;;;5.39;59.49;99860.25;5260816;27;20092;-91
2022/11/25 03:59:00;;;;;;;35.17;17.10;;;;;;;5.48;59.48;99865.34;5353856;26;20069;-91
2022/11/25 04:01:25;;;;;;;33.65;15.75;;;;;;;5.31;59.47;99862.03;5261115;27;20122;-91
2022/11/25 04:03:50;;;;;;;33.10;16.67;;;;;;;5.33;59.48;99863.75;5260495;26;26734;-90
2022/11/25 04:06:18;;;;;;;36.40;16.23;;;;;;;4.98;59.45;99878.66;5260310;27;23063;-91
2022/11/25 04:08:44;;;;;;;37.28;16.17;;;;;;;5.22;59.46;99876.75;5279175;27;20025;-90
2022/11/25 04:11:10;;;;;;;38.78;17.08;;;;;;;5.40;59.48;99874.84;5260492;27;20414;-91
2022/11/25 04:13:35;;;;;;;39.67;17.05;;;;;;;5.40;59.48;99877.44;5265000;26;20068;-91
2022/11/25 04:16:00;;;;;;;41.20;18.27;;;;;;;5.25;59.47;99878.44;5290379;27;28198;-91
2022/11/25 04:18:26;;;;;;;35.03;15.50;;;;;;;5.29;59.47;99884.44;5263006;27;20139;-91
2022/11/25 04:20:51;;;;;;;35.08;16.08;;;;;;;5.25;59.47;99883.59;5260577;27;20203;-90
2022/11/25 04:23:17;;;;;;;51.90;21.12;;;;;;;5.40;59.48;99890.34;5277766;27;20065;-91
2022/11/25 04:25:42;;;;;;;56.17;23.70;;;;;;;5.39;59.48;99889.50;5260244;27;20135;-90
2022/11/25 04:28:07;;;;;;;64.15;24.08;;;;;;;5.39;59.48;99891.22;5277968;27;20484;-91
2022/11/25 04:30:33;;;;;;;43.33;18.62;;;;;;;5.41;59.48;99892.06;5260733;27;20076;-89
2022/11/25 04:32:59;;;;;;;38.55;16.70;;;;;;;5.42;59.48;99899.78;5278357;27;20067;-91
2022/11/25 04:35:24;;;;;;;34.70;17.25;;;;;;;5.14;59.46;99903.47;5260416;27;20097;-90
2022/11/25 04:37:50;;;;;;;34.92;15.05;;;;;;;5.33;59.48;99914.50;5259970;26;20068;-90
2022/11/25 04:40:15;;;;;;;40.83;18.20;;;;;;;5.15;59.46;99916.34;5260097;27;20081;-89
2022/11/25 04:42:40;;;;;;;37.50;17.23;;;;;;;5.19;59.47;99923.19;5260096;26;20061;-90
2022/11/25 04:45:08;;;;;;;34.20;15.82;;;;;;;5.18;59.47;99926.63;5259840;26;20104;-91
2022/11/25 04:47:33;;;;;;;39.50;16.50;;;;;;;5.08;59.45;99922.44;5278189;27;20097;-90
2022/11/25 04:49:59;;;;;;;35.63;16.77;;;;;;;4.97;59.45;99924.25;5277675;27;20061;-90
2022/11/25 04:52:24;;;;;;;38.67;16.73;;;;;;;5.01;59.46;99935.38;5278075;26;20067;-89
2022/11/25 04:54:50;;;;;;;37.83;15.20;;;;;;;5.09;59.46;99937.03;5259627;26;20061;-90
2022/11/25 04:57:15;;;;;;;34.45;16.05;;;;;;;5.19;59.47;99943.84;5260001;27;20053;-90
2022/11/25 04:59:41;;;;;;;39.13;16.70;;;;;;;4.81;59.45;99951.84;5277298;27;29132;-91
2022/11/25 05:02:14;;;;;;;43.55;17.87;;;;;;;4.85;59.44;99950.09;5278583;27;20060;-91
2022/11/25 05:05:07;;;;;;;41.25;17.62;;;;;;;4.89;59.45;99956.94;5278211;27;20083;-91
2022/11/25 05:11:02;;;;;;;34.78;15.70;;;;;;;4.81;59.45;99959.56;5300278;26;20787;-93
2022/11/25 05:20:13;;;;;;;37.92;15.88;;;;;;;4.83;59.44;99964.72;5310727;26;20033;-93
2022/11/25 05:35:03;;;;;;;38.13;16.12;;;;;;;4.70;59.44;99988.84;5191584;27;20096;-90
2022/11/25 05:51:50;;;;;;;31.70;14.43;;;;;;;4.22;59.41;100003.59;5311129;26;20084;-92
2022/11/25 06:05:51;;;;;;;33.70;14.98;;;;;;;4.32;59.42;100018.19;5333801;26;20057;-92
2022/11/25 07:43:32;;;;;;;;;;;;;;;;;;;;;
2022/11/25 08:04:09;;;;;;;;;;;;;;;;;;;;;
2022/11/25 08:08:04;;;;;;;;;;;;;;;;;;;;;
2022/11/25 08:14:38;;;;;;;;;;;;;;;;;;;;;
2022/11/25 08:50:05;;;;;;;;;;;;;;;;;;;;;
2022/11/25 09:00:03;;;;;;;32.17;15.48;;;;;;;8.69;59.66;100099.84;5231021;27;20137;-96
2022/11/25 09:34:04;;;;;;;26.15;12.15;;;;;;;10.31;59.74;100084.16;4514685;31;168890;-92
2022/11/25 09:36:29;;;;;;;26.15;12.82;;;;;;;10.31;59.74;100084.16;4476381;31;20115;-93
2022/11/25 09:38:55;;;;;;;24.40;12.18;;;;;;;9.89;59.72;100089.47;4486830;31;20385;-94
2022/11/25 09:47:51;;;;;;;26.90;12.23;;;;;;;9.95;59.73;100081.56;4515511;31;20079;-93
2022/11/25 09:50:23;;;;;;;25.65;12.50;;;;;;;10.11;59.74;100079.41;4494395;32;20096;-95
2022/11/25 09:53:24;;;;;;;23.38;11.35;;;;;;;10.25;59.75;100085.16;4484436;31;20083;-93
2022/11/25 09:55:50;;;;;;;22.80;11.82;;;;;;;10.14;59.74;100074.97;4487135;31;20091;-94
2022/11/25 09:58:34;;;;;;;21.45;11.12;;;;;;;10.39;59.75;100071.78;4473834;31;20424;-92
2022/11/25 10:01:00;;;;;;;19.75;10.18;;;;;;;10.42;59.75;100076.94;4487820;31;20088;-92
2022/11/25 10:03:52;;;;;;;24.60;11.88;;;;;;;10.38;59.75;100077.87;4472938;32;20072;-92
2022/11/25 10:06:20;;;;;;;23.85;11.80;;;;;;;10.65;59.76;100082.38;4490316;31;20101;-92
2022/11/25 10:08:48;;;;;;;23.35;11.88;;;;;;;10.93;59.79;100077.25;4501757;31;20107;-93
2022/11/25 10:11:23;;;;;;;23.87;11.05;;;;;;;11.00;59.79;100084.00;4487047;31;20163;-92
2022/11/25 10:13:59;;;;;;;26.48;11.95;;;;;;;10.88;59.78;100083.47;4496148;31;20108;-94
2022/11/25 10:16:37;;;;;;;22.60;11.45;;;;;;;10.95;59.78;100078.06;4477729;32;20480;-92
2022/11/25 10:19:27;;;;;;;29.60;14.15;;;;;;;10.85;59.77;100073.16;4497166;31;20168;-92
2022/11/25 10:21:53;;;;;;;23.60;11.70;;;;;;;10.98;59.78;100077.97;4484831;31;20083;-93
2022/11/25 10:24:20;;;;;;;25.80;12.48;;;;;;;10.97;59.78;100072.81;4487219;31;20181;-93
2022/11/25 10:26:50;;;;;;;24.37;11.98;;;;;;;11.13;59.79;100073.25;4484352;32;20069;-93
2022/11/25 10:29:31;;;;;;;23.67;10.98;;;;;;;11.20;59.79;100066.94;4486136;31;20107;-93
2022/11/25 10:32:24;;;;;;;20.75;11.07;;;;;;;11.28;59.80;100062.34;4488024;31;20092;-93
2022/11/25 10:34:52;;;;;;;22.92;12.63;;;;;;;11.35;59.80;100062.09;4523415;31;20120;-93
2022/11/25 10:37:26;;;;;;;24.70;10.70;;;;;;;11.53;59.82;100071.13;4489371;31;20092;-94
2022/11/25 10:39:51;;;;;;;24.37;11.10;;;;;;;11.56;59.82;100064.97;4483889;31;20127;-93
2022/11/25 10:42:21;;;;;;;20.83;10.30;;;;;;;11.52;59.81;100066.81;4483528;32;28989;-93
2022/11/25 10:44:47;;;;;;;22.75;10.00;;;;;;;11.69;59.82;100066.31;4465923;31;20108;-93
2022/11/25 10:47:35;;;;;;;15.98;8.25;;;;;;;11.74;59.82;100072.22;4475944;31;20088;-93
2022/11/25 10:50:03;;;;;;;19.17;8.80;;;;;;;11.52;59.81;100079.00;4473969;32;20118;-92
2022/11/25 10:52:31;;;;;;;18.67;9.43;;;;;;;11.69;59.83;100077.59;4486528;32;20084;-94
2022/11/25 10:55:06;;;;;;;18.52;9.13;;;;;;;11.56;59.81;100078.00;4474553;31;20138;-93
2022/11/25 10:57:32;;;;;;;17.67;9.63;;;;;;;11.77;59.83;100079.94;4477049;31;20072;-92
2022/11/25 10:59:58;;;;;;;20.95;11.00;;;;;;;11.73;59.83;100078.34;4475591;31;23439;-94
2022/11/25 11:02:37;;;;;;;23.45;11.88;;;;;;;11.80;59.83;100087.69;4476256;31;20092;-93
2022/11/25 11:05:22;;;;;;;24.67;12.70;;;;;;;11.78;59.83;100084.28;4476048;31;20096;-93
2022/11/25 11:07:48;;;;;;;26.23;12.60;;;;;;;11.74;59.82;100085.25;4493017;31;20148;-93
2022/11/25 11:10:13;;;;;;;27.00;12.88;;;;;;;11.81;59.83;100097.22;4473431;32;20111;-92
2022/11/25 11:12:55;;;;;;;26.83;11.90;;;;;;;11.82;59.83;100091.09;4495207;31;20087;-93
2022/11/25 11:15:23;;;;;;;24.85;11.68;;;;;;;11.89;59.83;100087.44;4480004;31;20171;-93
2022/11/25 11:17:48;;;;;;;25.00;12.63;;;;;;;11.98;59.84;100084.50;4475954;31;20194;-94
2022/11/25 11:20:24;;;;;;;30.20;12.30;;;;;;;12.12;59.84;100091.03;4465096;31;20196;-93
2022/11/25 11:22:59;;;;;;;27.95;13.13;;;;;;;12.19;59.84;100095.16;4477047;31;20088;-94
2022/11/25 11:25:27;;;;;;;22.67;11.93;;;;;;;12.14;59.85;100094.47;4476478;31;20092;-94
2022/11/25 11:27:53;;;;;;;22.02;12.00;;;;;;;12.26;59.85;100089.66;4476475;31;20130;-94
2022/11/25 11:30:20;;;;;;;23.08;11.38;;;;;;;12.37;59.86;100085.88;4468187;32;20104;-94
2022/11/25 11:32:58;;;;;;;28.60;11.75;;;;;;;12.39;59.86;100084.91;4476481;31;20099;-92
2022/11/25 11:35:35;;;;;;;24.63;12.65;;;;;;;12.57;59.86;100086.03;4475948;31;20099;-92
2022/11/25 11:38:06;;;;;;;20.90;11.20;;;;;;;12.67;59.88;100084.78;4476703;31;20111;-92
2022/11/25 11:40:36;;;;;;;20.08;10.80;;;;;;;12.59;59.87;100087.69;4475948;31;20104;-92
2022/11/25 11:43:13;;;;;;;19.00;9.68;;;;;;;12.75;59.89;100087.13;4475156;32;20076;-93
2022/11/25 11:46:00;;;;;;;18.50;10.65;;;;;;;12.93;59.89;100081.25;4486290;32;20111;-92
2022/11/25 11:48:53;;;;;;;19.60;9.07;;;;;;;12.74;59.89;100088.03;4473371;32;20104;-93
2022/11/25 11:51:46;;;;;;;16.98;9.00;;;;;;;12.71;59.88;100090.75;4473610;31;20146;-93
2022/11/25 11:54:17;;;;;;;18.92;9.02;;;;;;;12.85;59.88;100081.53;4477953;31;20822;-94
2022/11/25 11:56:56;;;;;;;20.00;9.32;;;;;;;12.97;59.90;100081.97;4473336;32;20157;-92
2022/11/25 11:59:39;;;;;;;19.65;9.35;;;;;;;12.91;59.89;100078.69;4461571;32;20105;-93
2022/11/25 12:02:23;;;;;;;19.45;9.82;;;;;;;12.93;59.89;100067.34;4483506;32;20774;-93
2022/11/25 12:05:10;;;;;;;24.33;10.32;;;;;;;12.82;59.89;100076.44;4487915;31;20096;-93
2022/11/25 12:07:58;;;;;;;17.40;9.18;;;;;;;12.73;59.88;100068.91;4502082;31;20127;-94
2022/11/25 12:10:39;;;;;;;17.62;8.95;;;;;;;12.87;59.89;100071.88;4476240;31;20581;-94
2022/11/25 12:13:12;;;;;;;22.42;9.35;;;;;;;12.89;59.89;100077.91;4502203;31;20112;-93
2022/11/25 12:15:46;;;;;;;18.33;11.95;;;;;;;12.96;59.88;100080.28;4482176;31;20091;-92
2022/11/25 12:18:25;;;;;;;18.80;10.13;;;;;;;13.00;59.89;100074.87;4492417;31;20100;-93
2022/11/25 12:21:01;;;;;;;22.50;9.63;;;;;;;12.98;59.90;100076.69;4463819;32;20160;-93
2022/11/25 12:23:51;;;;;;;19.37;9.07;;;;;;;12.96;59.88;100068.06;4472694;32;20757;-93
2022/11/25 12:26:21;;;;;;;24.75;13.43;;;;;;;12.99;59.90;100078.41;4491132;31;20084;-93
2022/11/25 12:29:01;;;;;;;22.17;9.10;;;;;;;12.94;59.89;100076.88;4475912;31;20096;-93
2022/11/25 12:31:36;;;;;;;;;;;;;;;12.91;59.89;100075.22;4476310;31;20080;-92
2022/11/25 12:34:11;;;;;;;14.43;7.87;;;;;;;12.98;59.89;100074.09;4478361;32;20035;-93
2022/11/25 12:36:41;;;;;;;14.50;8.02;;;;;;;12.96;59.88;100072.44;4460420;32;20096;-93
2022/11/25 12:39:31;;;;;;;17.33;7.62;;;;;;;13.04;59.90;100071.28;4468084;32;20093;-93
2022/11/25 12:42:00;;;;;;;14.05;6.50;;;;;;;13.20;59.91;100071.56;4499094;31;20185;-94
2022/11/25 12:44:42;;;;;;;16.42;6.60;;;;;;;13.20;59.91;100069.81;4472897;31;20101;-93
2022/11/25 12:47:09;;;;;;;12.30;6.97;;;;;;;13.30;59.91;100065.09;4468371;31;20771;-93
2022/11/25 12:49:44;;;;;;;15.63;6.97;;;;;;;13.56;59.92;100056.25;4475809;31;20118;-93
2022/11/25 12:52:25;;;;;;;14.02;6.15;;;;;;;13.53;59.92;100058.97;4502005;31;20539;-93
2022/11/25 12:55:09;;;;;;;14.77;7.00;;;;;;;13.58;59.93;100051.81;4488209;31;20112;-93
2022/11/25 12:58:03;;;;;;;12.35;6.45;;;;;;;13.58;59.93;100053.56;4501888;31;20092;-93
2022/11/25 13:00:45;;;;;;;16.33;7.18;;;;;;;13.83;59.94;100051.66;4495795;31;20789;-93
2022/11/25 13:03:29;;;;;;;14.70;6.60;;;;;;;13.99;59.94;100063.22;4485459;32;20130;-93
2022/11/25 13:06:09;;;;;;;12.57;6.68;;;;;;;13.97;59.95;100059.81;4494103;31;20124;-93
2022/11/25 13:08:54;;;;;;;18.00;9.40;;;;;;;13.77;59.94;100052.78;4490337;31;20165;-93
2022/11/25 13:11:33;;;;;;;13.48;5.80;;;;;;;13.66;59.93;100044.50;4479132;32;20100;-93
2022/11/25 13:14:18;;;;;;;12.95;5.85;;;;;;;13.67;59.93;100048.81;4472751;32;20116;-95
2022/11/25 13:16:44;;;;;;;21.42;10.77;;;;;;;13.44;59.92;100052.31;4497745;31;20112;-94
2022/11/25 13:19:12;;;;;;;19.02;10.75;;;;;;;13.26;59.91;100054.81;4475181;31;20088;-94
2022/11/25 13:22:19;;;;;;;12.23;7.75;;;;;;;13.10;59.89;100055.34;4475758;31;20155;-94
2022/11/25 13:24:44;;;;;;;14.23;7.75;;;;;;;12.88;59.88;100062.28;4442953;32;20166;-92
2022/11/25 13:27:30;;;;;;;22.60;12.43;;;;;;;12.73;59.89;100057.59;4456443;32;20112;-92
2022/11/25 13:29:55;;;;;;;27.87;15.25;;;;;;;12.70;59.88;100070.78;4472560;32;20104;-92
2022/11/25 13:32:30;;;;;;;24.08;12.90;;;;;;;12.63;59.88;100074.50;4470154;31;20099;-93
2022/11/25 13:35:20;;;;;;;18.12;8.75;;;;;;;12.46;59.87;100075.09;4459582;32;20135;-93
2022/11/25 13:37:46;;;;;;;14.27;7.50;;;;;;;12.44;59.87;100076.91;4498094;31;20095;-93
2022/11/25 13:40:31;;;;;;;18.27;7.18;;;;;;;12.36;59.87;100074.56;4469977;32;20092;-93
2022/11/25 13:42:56;;;;;;;17.20;8.13;;;;;;;12.27;59.85;100078.31;4487952;31;20721;-93
2022/11/25 13:45:28;;;;;;;14.15;7.12;;;;;;;12.43;59.86;100081.28;4474981;31;20151;-93
2022/11/25 13:47:53;;;;;;;14.52;7.62;;;;;;;12.44;59.88;100087.34;4477463;31;20077;-93
2022/11/25 13:50:22;;;;;;;13.05;6.25;;;;;;;12.38;59.86;100082.34;4475320;31;20114;-93
2022/11/25 13:52:58;;;;;;;15.40;6.82;;;;;;;12.16;59.85;100090.88;4488565;31;20073;-92
2022/11/25 13:55:33;;;;;;;13.65;7.47;;;;;;;12.26;59.85;100091.44;4480503;31;20103;-92
2022/11/25 13:57:59;;;;;;;15.82;7.28;;;;;;;12.53;59.87;100084.41;4476602;31;20108;-93
2022/11/25 14:00:34;;;;;;;11.30;5.87;;;;;;;12.60;59.88;100089.38;4471691;32;20053;-92
2022/11/25 14:03:18;;;;;;;15.02;6.87;;;;;;;12.59;59.88;100090.28;4495911;31;20110;-93
2022/11/25 14:05:58;;;;;;;18.87;11.00;;;;;;;12.40;59.86;100089.22;4492132;31;20108;-93
2022/11/25 14:08:37;;;;;;;16.42;8.38;;;;;;;12.32;59.86;100093.84;4476288;31;20142;-93
2022/11/25 14:11:08;;;;;;;15.23;6.45;;;;;;;12.20;59.85;100102.06;4479168;32;20120;-93
2022/11/25 14:14:15;;;;;;;14.98;6.53;;;;;;;12.09;59.85;100119.84;4487529;31;20104;-93
2022/11/25 14:17:14;;;;;;;14.20;8.73;;;;;;;12.29;59.86;100109.59;4478608;31;20144;-93
2022/11/25 14:19:48;;;;;;;12.35;6.43;;;;;;;12.22;59.86;100114.16;4476769;31;20133;-93
2022/11/25 14:22:51;;;;;;;27.87;17.15;;;;;;;12.12;59.85;100119.75;4499094;31;20084;-93
2022/11/25 14:25:31;;;;;;;16.80;9.70;;;;;;;12.13;59.84;100121.47;4496274;31;20118;-93
2022/11/25 14:28:16;;;;;;;16.47;8.27;;;;;;;11.93;59.84;100122.09;4478253;31;20168;-93
2022/11/25 14:30:43;;;;;;;14.30;6.75;;;;;;;11.85;59.83;100124.94;4491490;31;20552;-93
2022/11/25 14:33:09;;;;;;;15.25;6.87;;;;;;;11.69;59.83;100123.66;4476654;31;20871;-93
2022/11/25 14:35:47;;;;;;;17.42;7.10;;;;;;;11.44;59.81;100120.94;4476536;31;20114;-93
2022/11/25 14:38:22;;;;;;;16.73;6.70;;;;;;;11.37;59.81;100122.88;4477508;31;20179;-93
2022/11/25 14:40:53;;;;;;;12.57;7.05;;;;;;;11.34;59.81;100124.69;4477539;31;20115;-94
2022/11/25 14:43:20;;;;;;;16.35;8.27;;;;;;;11.33;59.81;100125.59;4477061;31;20100;-92
2022/11/25 14:45:46;;;;;;;15.13;7.30;;;;;;;11.23;59.80;100127.63;4476746;31;20156;-93
2022/11/25 14:48:16;;;;;;;13.30;6.78;;;;;;;11.23;59.80;100134.59;4475767;31;31122;-93
2022/11/25 14:51:06;;;;;;;17.50;7.37;;;;;;;11.18;59.80;100123.47;4474253;31;20112;-93
2022/11/25 14:53:35;;;;;;;;;;;;;;;11.18;59.80;100129.53;4478425;31;20131;-93
2022/11/25 14:56:00;;;;;;;14.48;6.25;;;;;;;11.21;59.80;100125.97;4479487;32;19951;-92
2022/11/25 14:58:26;;;;;;;17.58;6.90;;;;;;;11.04;59.79;100142.91;4460297;32;20634;-93
2022/11/25 15:01:04;;;;;;;13.43;7.07;;;;;;;10.97;59.78;100140.53;4469148;31;20123;-93
2022/11/25 15:03:29;;;;;;;17.52;7.28;;;;;;;10.88;59.78;100132.97;4476182;31;20110;-93
2022/11/25 15:05:56;;;;;;;19.90;9.20;;;;;;;10.74;59.77;100142.00;4468092;32;20140;-92
2022/11/25 15:08:23;;;;;;;18.98;9.10;;;;;;;10.65;59.77;100142.25;4473384;31;20813;-93
2022/11/25 15:10:58;;;;;;;13.90;7.15;;;;;;;10.61;59.76;100134.53;4481022;31;20152;-93
2022/11/25 15:13:31;;;;;;;24.37;8.40;;;;;;;10.57;59.77;100146.78;4478894;31;20088;-92
2022/11/25 15:16:21;;;;;;;19.02;8.30;;;;;;;10.37;59.76;100149.88;4488206;32;20621;-93
2022/11/25 15:19:03;;;;;;;15.07;8.32;;;;;;;10.35;59.75;100151.69;4495035;31;20172;-93
2022/11/25 15:21:36;;;;;;;46.47;21.20;;;;;;;10.34;59.75;100143.91;4477627;31;20072;-93
2022/11/25 15:24:02;;;;;;;53.90;25.88;;;;;;;10.28;59.75;100144.91;4465732;31;20092;-92
2022/11/25 15:26:29;;;;;;;43.25;19.65;;;;;;;10.18;59.75;100152.97;4471883;32;20080;-93
2022/11/25 15:29:09;;;;;;;35.55;16.90;;;;;;;10.09;59.74;100157.47;4464777;32;20081;-92
2022/11/25 15:31:34;;;;;;;34.55;15.43;;;;;;;9.95;59.73;100156.97;4476649;31;20191;-92
2022/11/25 15:34:06;;;;;;;40.08;18.15;;;;;;;9.87;59.72;100158.00;4474038;31;20124;-93
2022/11/25 15:36:31;;;;;;;53.72;22.33;;;;;;;9.75;59.72;100161.75;4473339;32;20165;-93
2022/11/25 15:39:18;;;;;;;58.05;24.95;;;;;;;9.62;59.71;100165.50;4467102;32;27276;-93
2022/11/25 15:41:48;;;;;;;54.13;25.10;;;;;;;9.64;59.71;100158.50;4492148;31;20107;-92
2022/11/25 15:44:22;;;;;;;60.50;28.87;;;;;;;9.59;59.71;100162.97;4476468;31;20080;-93
2022/11/25 15:47:05;;;;;;;70.87;33.22;;;;;;;9.56;59.71;100160.44;4471775;32;20161;-92
2022/11/25 15:49:31;;;;;;;85.57;40.83;;;;;;;9.42;59.71;100161.56;4474216;31;20112;-92
2022/11/25 15:52:08;;;;;;;86.35;45.85;;;;;;;9.28;59.70;100166.19;4478648;31;20124;-93
2022/11/25 15:54:39;;;;;;;64.90;30.05;;;;;;;9.33;59.69;100153.13;4493231;31;20088;-92
2022/11/25 15:57:15;;;;;;;50.20;24.35;;;;;;;9.38;59.70;100152.13;4476956;31;20792;-93